Time;durP1;ratioP1;P1;durP2;ratioP2;P2;SDS_P1;SDS_P2;PMS_P1;PMS_P2;Temp;Humidity;BMP_temperature;BMP_pressure;BME280_temperature;BME280_humidity;BME280_pressure;Samples;Min_cycle;Max_cycle;Signal;HPM_P1;HPM_P2
2023/02/14 00:02:19;;;;;;;;;;;;;;;;;;;;;
2023/02/14 00:05:31;;;;;;;7.13;5.57;;;9.30;98.20;;;;;;4904610;29;20727;-84
2023/02/14 00:18:08;;;;;;;;;;;;;;;;;;;;;
2023/02/14 00:24:33;;;;;;;8.47;6.47;;;9.30;98.00;;;;;;4883778;26;20522;-84
2023/02/14 00:27:34;;;;;;;6.77;5.80;;;9.30;98.20;;;;;;4833625;29;20435;-82
2023/02/14 00:34:06;;;;;;;7.57;5.70;;;9.10;98.20;;;;;;4808437;29;20452;-84
2023/02/14 00:40:48;;;;;;;7.17;5.90;;;8.80;98.70;;;;;;4869316;29;20497;-84
2023/02/14 00:44:04;;;;;;;7.37;5.03;;;8.70;99.20;;;;;;4820767;29;20555;-84
2023/02/14 00:46:51;;;;;;;6.90;5.63;;;8.70;99.00;;;;;;4805044;29;20525;-84
2023/02/14 00:49:31;;;;;;;8.17;5.90;;;8.50;98.90;;;;;;4807352;29;20498;-85
2023/02/14 00:52:17;;;;;;;8.50;5.97;;;8.50;99.20;;;;;;4834612;29;20505;-86
2023/02/14 00:55:19;;;;;;;8.03;6.47;;;8.60;99.10;;;;;;4824501;29;20440;-84
2023/02/14 00:58:26;;;;;;;7.07;5.57;;;8.60;99.00;;;;;;4827144;29;21227;-84
2023/02/14 01:01:58;;;;;;;10.80;6.07;;;8.60;98.90;;;;;;4834099;29;20636;-85
2023/02/14 01:08:15;;;;;;;9.27;7.40;;;8.50;98.90;;;;;;4785651;29;20448;-85
2023/02/14 01:14:48;;;;;;;9.73;7.37;;;8.40;99.20;;;;;;4810036;29;20565;-84
2023/02/14 01:17:19;;;;;;;7.73;6.40;;;8.30;99.40;;;;;;4812991;29;21009;-85
2023/02/14 01:20:18;;;;;;;11.30;6.10;;;8.30;99.50;;;;;;4815463;29;20496;-85
2023/02/14 01:23:25;;;;;;;7.60;5.93;;;8.10;99.60;;;;;;4845814;29;20545;-85
2023/02/14 01:26:10;;;;;;;8.83;6.57;;;8.00;99.80;;;;;;4883600;29;20464;-84
2023/02/14 01:29:25;;;;;;;9.20;7.33;;;7.90;99.90;;;;;;4872499;29;20471;-84
2023/02/14 01:35:27;;;;;;;10.80;6.50;;;7.80;99.90;;;;;;4897490;29;20484;-84
2023/02/14 01:38:18;;;;;;;8.40;6.33;;;7.70;99.90;;;;;;4878034;29;20487;-83
2023/02/14 01:41:04;;;;;;;7.80;5.87;;;8.00;99.90;;;;;;4887602;29;20515;-84
2023/02/14 01:44:17;;;;;;;8.70;6.70;;;8.00;99.90;;;;;;4872920;29;20434;-84
2023/02/14 01:48:00;;;;;;;7.50;6.23;;;8.00;99.90;;;;;;4843071;29;20481;-85
2023/02/14 01:54:22;;;;;;;9.53;6.93;;;7.90;99.90;;;;;;4839466;29;20461;-84
2023/02/14 01:57:59;;;;;;;9.20;5.83;;;7.90;99.90;;;;;;4833358;29;20442;-84
2023/02/14 02:04:30;;;;;;;6.67;5.97;;;7.60;99.90;;;;;;4743962;30;20528;-84
2023/02/14 02:07:41;;;;;;;7.90;5.97;;;7.70;99.90;;;;;;4751451;30;20477;-83
2023/02/14 02:10:24;;;;;;;6.70;6.00;;;7.90;99.90;;;;;;4750839;30;21882;-83
2023/02/14 02:13:18;;;;;;;7.73;6.70;;;7.70;99.90;;;;;;4722679;30;20560;-83
2023/02/14 02:16:51;;;;;;;6.53;5.40;;;7.60;99.90;;;;;;4730817;30;20467;-84
2023/02/14 02:24:02;;;;;;;8.33;6.10;;;7.80;99.90;;;;;;4795547;29;20519;-85
2023/02/14 02:27:08;;;;;;;8.23;6.23;;;7.90;99.90;;;;;;4873480;29;20460;-85
2023/02/14 02:30:23;;;;;;;8.30;5.97;;;7.60;99.90;;;;;;4869410;29;20554;-84
2023/02/14 02:33:22;;;;;;;7.67;6.97;;;7.70;99.90;;;;;;4862231;29;20583;-83
2023/02/14 02:40:16;;;;;;;7.17;6.40;;;7.60;99.90;;;;;;4881477;29;20606;-84
2023/02/14 02:43:32;;;;;;;9.83;6.67;;;7.70;99.90;;;;;;4867121;29;20557;-85
2023/02/14 02:53:23;;;;;;;7.90;6.57;;;7.50;99.90;;;;;;4881110;29;20651;-84
2023/02/14 02:59:46;;;;;;;9.53;7.63;;;7.80;99.90;;;;;;4879726;29;20902;-83
2023/02/14 03:06:08;;;;;;;9.43;7.43;;;7.60;99.90;;;;;;4899022;29;20547;-83
2023/02/14 03:09:24;;;;;;;9.47;8.23;;;7.50;99.90;;;;;;4853916;29;20453;-84
2023/02/14 03:13:39;;;;;;;7.37;6.40;;;7.40;99.90;;;;;;4858638;29;20493;-83
2023/02/14 03:16:26;;;;;;;8.10;7.27;;;7.40;99.90;;;;;;4887252;29;20470;-84
2023/02/14 03:20:21;;;;;;;8.90;7.17;;;7.40;99.90;;;;;;4886507;29;20512;-82
2023/02/14 03:22:53;;;;;;;9.70;7.27;;;7.20;99.90;;;;;;4876187;29;20483;-83
2023/02/14 03:26:31;;;;;;;10.50;7.60;;;7.20;99.90;;;;;;4874406;29;20522;-84
2023/02/14 03:29:57;;;;;;;11.50;8.50;;;7.40;99.90;;;;;;4827612;29;20469;-84
2023/02/14 03:33:07;;;;;;;10.47;7.90;;;7.40;99.90;;;;;;4817159;29;20513;-83
2023/02/14 03:36:30;;;;;;;10.77;8.10;;;7.30;99.90;;;;;;4832171;29;20796;-81
2023/02/14 03:40:05;;;;;;;10.10;8.17;;;7.20;99.90;;;;;;4846761;29;20550;-83
2023/02/14 03:44:10;;;;;;;9.87;7.50;;;7.10;99.90;;;;;;4880183;29;20520;-83
2023/02/14 03:46:58;;;;;;;8.07;7.03;;;7.10;99.90;;;;;;4891381;29;20459;-84
2023/02/14 03:49:38;;;;;;;10.80;8.60;;;7.40;99.90;;;;;;4878043;29;20510;-83
2023/02/14 03:55:45;;;;;;;9.77;8.00;;;7.20;99.90;;;;;;4890543;29;20466;-85
2023/02/14 03:58:49;;;;;;;9.63;8.63;;;7.30;99.90;;;;;;4834806;29;20491;-85
2023/02/14 04:02:12;;;;;;;12.80;8.97;;;7.10;99.90;;;;;;4890220;29;20612;-85
2023/02/14 04:05:29;;;;;;;10.73;8.07;;;7.20;99.90;;;;;;4866823;29;20851;-84
2023/02/14 04:08:41;;;;;;;14.40;9.93;;;7.10;99.90;;;;;;4885794;29;20994;-84
2023/02/14 04:11:38;;;;;;;9.70;8.70;;;7.20;99.90;;;;;;4891561;29;20475;-83
2023/02/14 04:14:38;;;;;;;8.40;7.50;;;7.00;99.90;;;;;;4872334;29;20523;-84
2023/02/14 04:20:26;;;;;;;13.27;8.97;;;7.30;99.90;;;;;;4886358;29;20554;-84
2023/02/14 04:23:17;;;;;;;10.70;8.50;;;7.20;99.90;;;;;;4875529;29;20590;-84
2023/02/14 04:25:59;;;;;;;11.37;8.63;;;7.20;99.90;;;;;;4870678;29;20477;-83
2023/02/14 04:28:39;;;;;;;14.30;9.63;;;7.10;99.90;;;;;;4887919;29;20547;-83
2023/02/14 04:31:16;;;;;;;10.87;8.53;;;7.10;99.90;;;;;;4866914;29;21015;-84
2023/02/14 04:34:12;;;;;;;13.00;9.40;;;7.20;99.90;;;;;;4867736;29;20452;-82
2023/02/14 04:36:52;;;;;;;11.20;8.83;;;7.20;99.90;;;;;;4889126;29;20456;-84
2023/02/14 04:40:26;;;;;;;10.77;9.67;;;7.30;99.90;;;;;;4848476;29;21076;-84
2023/02/14 04:43:36;;;;;;;;;;;;;;;;;;;;;
2023/02/14 04:46:20;;;;;;;14.10;9.30;;;7.00;99.90;;;;;;4845918;29;20467;-83
2023/02/14 04:49:15;;;;;;;12.70;9.03;;;7.00;99.90;;;;;;4836571;29;20989;-82
2023/02/14 04:52:08;;;;;;;12.30;9.27;;;6.90;99.90;;;;;;4850876;29;20469;-84
2023/02/14 04:54:41;;;;;;;14.33;9.87;;;6.80;99.90;;;;;;4830097;29;20470;-86
2023/02/14 04:57:29;;;;;;;14.90;10.90;;;6.70;99.90;;;;;;4857034;29;20467;-84
2023/02/14 05:00:15;;;;;;;15.30;10.97;;;6.90;99.90;;;;;;4872320;29;21148;-84
2023/02/14 05:02:50;;;;;;;17.33;10.73;;;6.90;99.90;;;;;;4885231;29;20859;-84
2023/02/14 05:05:23;;;;;;;16.43;10.70;;;6.80;99.90;;;;;;4875580;29;21070;-85
2023/02/14 05:07:56;;;;;;;16.23;11.20;;;6.60;99.90;;;;;;4893340;29;20447;-84
2023/02/14 05:10:51;;;;;;;13.50;9.77;;;6.60;99.90;;;;;;4894411;29;20460;-84
2023/02/14 05:13:27;;;;;;;18.93;9.60;;;6.70;99.90;;;;;;4876723;29;20479;-84
2023/02/14 05:16:15;;;;;;;13.00;10.00;;;6.70;99.90;;;;;;4888267;29;21026;-83
2023/02/14 05:19:04;;;;;;;12.90;10.87;;;6.70;99.90;;;;;;4874967;29;20543;-83
2023/02/14 05:22:02;;;;;;;14.73;10.77;;;6.70;99.90;;;;;;4894913;29;20503;-83
2023/02/14 05:24:56;;;;;;;17.43;10.73;;;6.50;99.90;;;;;;4870549;29;20463;-83
2023/02/14 05:27:25;;;;;;;14.40;9.87;;;6.70;99.90;;;;;;4886901;29;20482;-85
2023/02/14 05:30:39;;;;;;;13.33;10.60;;;6.60;99.90;;;;;;4870544;29;20450;-83
2023/02/14 05:33:28;;;;;;;14.23;10.40;;;6.50;99.90;;;;;;4893155;29;20459;-84
2023/02/14 05:36:01;;;;;;;15.13;10.77;;;6.50;99.90;;;;;;4884264;29;20530;-84
2023/02/14 05:38:39;;;;;;;18.87;11.00;;;6.50;99.90;;;;;;4877768;29;20459;-84
2023/02/14 05:41:24;;;;;;;15.87;10.63;;;6.80;99.90;;;;;;4883679;29;20479;-83
2023/02/14 05:44:09;;;;;;;15.53;11.23;;;6.80;99.90;;;;;;4887422;29;20462;-84
2023/02/14 05:46:41;;;;;;;15.40;10.60;;;6.80;99.90;;;;;;4885589;29;20463;-83
2023/02/14 05:52:01;;;;;;;18.73;11.00;;;6.90;99.90;;;;;;5011918;23;20591;-86
2023/02/14 05:54:54;;;;;;;15.30;10.70;;;6.70;99.90;;;;;;4943365;29;20449;-84
2023/02/14 05:57:53;;;;;;;15.70;10.60;;;6.60;99.90;;;;;;4929615;29;20453;-83
2023/02/14 06:00:28;;;;;;;17.10;11.63;;;6.70;99.90;;;;;;4929944;29;20540;-85
2023/02/14 06:03:08;;;;;;;21.27;11.10;;;6.70;99.90;;;;;;4927478;29;20457;-85
2023/02/14 06:05:54;;;;;;;16.30;11.80;;;6.60;99.90;;;;;;4929336;29;20461;-84
2023/02/14 06:08:43;;;;;;;20.43;12.80;;;6.50;99.90;;;;;;4930357;29;20438;-84
2023/02/14 06:14:41;;;;;;;19.77;13.23;;;6.60;99.90;;;;;;4942538;28;20528;-83
2023/02/14 06:17:47;;;;;;;16.73;12.00;;;6.50;99.90;;;;;;4941992;29;20447;-83
2023/02/14 06:20:33;;;;;;;19.70;12.60;;;6.40;99.90;;;;;;4926395;29;20496;-83
2023/02/14 06:23:14;;;;;;;19.10;12.20;;;6.40;99.90;;;;;;4925947;29;20484;-84
2023/02/14 06:26:03;;;;;;;17.80;11.53;;;6.30;99.90;;;;;;4928676;29;20464;-84
2023/02/14 06:28:56;;;;;;;23.30;13.33;;;6.40;99.90;;;;;;4930669;28;20470;-84
2023/02/14 06:31:35;;;;;;;22.90;13.03;;;6.30;99.90;;;;;;4933364;29;20629;-84
2023/02/14 06:34:15;;;;;;;19.50;12.63;;;6.10;99.90;;;;;;4959051;28;20448;-84
2023/02/14 06:36:48;;;;;;;20.07;14.60;;;6.20;99.90;;;;;;4946225;28;20452;-84
2023/02/14 06:39:43;;;;;;;22.87;13.60;;;6.20;99.90;;;;;;4945227;28;20480;-84
2023/02/14 06:42:31;;;;;;;22.13;13.10;;;6.20;99.90;;;;;;4927774;29;20480;-84
2023/02/14 06:45:31;;;;;;;18.83;11.90;;;6.30;99.90;;;;;;4931320;29;20441;-85
2023/02/14 06:48:24;;;;;;;22.83;13.67;;;6.20;99.90;;;;;;4902808;29;20538;-83
2023/02/14 06:51:23;;;;;;;24.70;13.33;;;6.40;99.90;;;;;;4890230;29;20951;-82
2023/02/14 06:54:21;;;;;;;23.83;13.47;;;6.30;99.90;;;;;;4834493;29;21350;-83
2023/02/14 06:57:35;;;;;;;23.13;16.80;;;6.50;99.90;;;;;;4807173;29;20475;-83
2023/02/14 07:03:34;;;;;;;27.30;15.20;;;6.60;99.90;;;;;;4849277;29;20488;-83
2023/02/14 07:07:05;;;;;;;25.10;15.10;;;6.60;99.90;;;;;;4851460;29;20770;-83
2023/02/14 07:10:06;;;;;;;;;;;;;;;;;;;;;
2023/02/14 07:12:41;;;;;;;32.67;16.23;;;6.60;99.90;;;;;;4940600;29;20465;-82
2023/02/14 07:17:57;;;;;;;26.67;15.47;;;6.60;99.90;;;;;;5041052;23;20518;-84
2023/02/14 07:20:39;;;;;;;25.07;16.80;;;6.50;99.90;;;;;;4968842;28;20543;-84
2023/02/14 07:23:28;;;;;;;29.87;15.57;;;6.60;99.90;;;;;;5158063;23;20524;-84
2023/02/14 07:26:01;;;;;;;29.13;16.90;;;7.70;99.90;;;;;;4980266;28;20492;-86
2023/02/14 07:28:52;;;;;;;27.53;16.67;;;8.80;99.90;;;;;;4983908;28;20459;-85
2023/02/14 07:31:41;;;;;;;26.20;14.67;;;9.60;97.60;;;;;;4976896;28;20476;-83
2023/02/14 07:34:39;;;;;;;28.13;16.00;;;10.40;94.70;;;;;;4971275;28;20445;-85
2023/02/14 07:38:08;;;;;;;21.93;13.77;;;11.20;92.90;;;;;;4958172;28;20590;-84
2023/02/14 07:41:16;;;;;;;20.97;14.13;;;11.40;91.50;;;;;;4951923;28;20491;-84
2023/02/14 07:44:15;;;;;;;24.90;14.20;;;11.80;90.30;;;;;;4946303;28;20489;-83
2023/02/14 07:50:36;;;;;;;22.67;14.93;;;10.00;92.50;;;;;;4939106;28;20475;-84
2023/02/14 07:53:53;;;;;;;26.30;16.03;;;9.60;94.40;;;;;;4944415;28;20449;-85
2023/02/14 07:56:27;;;;;;;24.83;14.23;;;9.50;94.80;;;;;;4927081;28;20472;-83
2023/02/14 07:58:57;;;;;;;17.70;12.80;;;9.50;95.10;;;;;;4943206;28;20465;-84
2023/02/14 08:01:26;;;;;;;27.23;15.37;;;9.50;95.30;;;;;;4927925;28;20523;-84
2023/02/14 08:14:23;;;;;;;28.93;14.63;;;8.30;96.10;;;;;;4840813;29;20455;-84
2023/02/14 08:17:14;;;;;;;24.40;14.07;;;7.80;97.90;;;;;;4856177;29;20476;-84
2023/02/14 08:20:16;;;;;;;25.90;16.00;;;7.50;99.00;;;;;;4850950;29;20582;-83
2023/02/14 08:23:38;;;;;;;23.43;14.33;;;7.40;99.80;;;;;;4856506;29;20444;-84
2023/02/14 08:26:37;;;;;;;28.17;15.00;;;7.30;99.90;;;;;;4800277;29;20482;-86
2023/02/14 08:29:44;;;;;;;26.03;13.60;;;7.40;99.90;;;;;;4767495;30;20462;-85
2023/02/14 08:32:37;;;;;;;24.73;14.70;;;7.50;99.90;;;;;;4792027;29;21090;-84
2023/02/14 08:39:11;;;;;;;22.20;13.47;;;7.40;99.90;;;;;;4839635;29;20853;-84
2023/02/14 08:41:47;;;;;;;17.00;12.27;;;7.50;99.90;;;;;;4826766;29;20521;-82
2023/02/14 08:44:40;;;;;;;20.10;15.00;;;7.80;99.90;;;;;;4835976;29;20515;-83
2023/02/14 08:47:39;;;;;;;;;;;;;;;;;;;;;
2023/02/14 08:50:42;;;;;;;24.57;13.50;;;7.90;99.90;;;;;;4810253;29;20965;-81
2023/02/14 08:53:30;;;;;;;19.60;11.77;;;8.10;99.90;;;;;;4798437;29;20470;-83
2023/02/14 08:56:23;;;;;;;19.33;13.80;;;8.10;99.60;;;;;;4797743;29;20443;-82
2023/02/14 09:00:13;;;;;;;22.13;13.77;;;8.20;99.70;;;;;;4801021;29;20472;-83
2023/02/14 09:07:26;;;;;;;;;;;;;;;;;;;;;
2023/02/14 09:16:44;;;;;;;22.47;14.27;;;8.40;99.20;;;;;;5293629;23;20991;-84
2023/02/14 09:19:37;;;;;;;19.77;13.40;;;8.60;99.10;;;;;;4960758;28;20468;-84
2023/02/14 09:22:54;;;;;;;19.83;15.33;;;8.50;98.80;;;;;;4896463;28;20457;-83
2023/02/14 09:25:38;;;;;;;23.83;16.47;;;8.60;99.10;;;;;;4939791;29;20513;-84
2023/02/14 09:28:19;;;;;;;18.33;10.60;;;8.80;98.90;;;;;;4937144;28;20456;-82
2023/02/14 09:38:26;;;;;;;24.07;16.73;;;8.90;98.40;;;;;;4939661;29;20583;-84
2023/02/14 09:42:19;;;;;;;21.60;15.13;;;8.90;98.30;;;;;;4843782;29;20544;-84
2023/02/14 09:45:37;;;;;;;25.70;13.77;;;8.70;98.20;;;;;;4777238;29;20983;-85
2023/02/14 10:00:52;;;;;;;27.00;15.73;;;8.90;97.80;;;;;;4735947;30;20454;-82
2023/02/14 10:03:56;;;;;;;19.40;14.30;;;8.90;98.10;;;;;;4704038;30;20465;-83
2023/02/14 10:07:01;;;;;;;21.23;14.00;;;11.20;94.90;;;;;;4669153;30;21394;-85
2023/02/14 10:10:30;;;;;;;17.33;12.70;;;12.80;91.50;;;;;;4706432;30;21961;-85
2023/02/14 10:17:46;;;;;;;17.93;12.43;;;16.10;75.70;;;;;;4729512;29;20561;-85
2023/02/14 10:36:33;;;;;;;20.90;13.07;;;11.80;88.30;;;;;;4964820;28;20687;-84
2023/02/14 10:47:52;;;;;;;;;;;;;;;;;;;;;
2023/02/14 11:17:18;;;;;;;13.93;11.13;;;11.10;92.80;;;;;;4735467;29;20453;-84
2023/02/14 11:29:32;;;;;;;17.43;12.47;;;11.30;92.60;;;;;;4541675;26;20488;-84
2023/02/14 11:32:55;;;;;;;;;;;;;;;;;;;;;
2023/02/14 11:36:22;;;;;;;;;;;;;;;;;;;;;
2023/02/14 11:39:39;;;;;;;16.60;11.90;;;11.30;92.40;;;;;;4833193;29;20599;-84
2023/02/14 11:46:53;;;;;;;19.40;13.17;;;11.60;92.00;;;;;;4869921;29;20428;-83
2023/02/14 11:50:38;;;;;;;;;;;;;;;;;;;;;
2023/02/14 12:25:44;;;;;;;;;;;;;;;;;;;;;
2023/02/14 12:29:29;;;;;;;;;;;;;;;;;;;;;
2023/02/14 13:18:22;;;;;;;12.50;10.30;;;13.00;87.40;;;;;;4804526;29;21675;-84
2023/02/14 13:21:35;;;;;;;16.33;10.03;;;13.10;86.90;;;;;;4816349;28;20501;-84
2023/02/14 13:24:55;;;;;;;13.33;10.40;;;13.20;86.10;;;;;;4863771;29;20503;-84
2023/02/14 13:36:05;;;;;;;15.37;11.20;;;13.30;85.60;;;;;;4810952;29;20999;-84
2023/02/14 13:43:31;;;;;;;14.63;10.33;;;13.30;85.30;;;;;;4732047;30;20534;-85
2023/02/14 14:09:44;;;;;;;13.33;9.83;;;13.50;84.20;;;;;;4716246;30;20581;-83
2023/02/14 14:17:36;;;;;;;14.30;10.57;;;13.40;84.20;;;;;;4856275;29;20461;-83
2023/02/14 14:21:10;;;;;;;16.60;12.80;;;13.30;84.30;;;;;;4832993;29;20470;-84
2023/02/14 14:32:00;;;;;;;;;;;;;;;;;;;;;
2023/02/14 14:35:34;;;;;;;;;;;;;;;;;;;;;
2023/02/14 14:46:10;;;;;;;13.30;9.97;;;13.70;82.80;;;;;;4840601;29;21087;-83
2023/02/14 14:53:00;;;;;;;12.63;10.23;;;13.70;82.60;;;;;;4912501;29;20462;-84
2023/02/14 14:56:08;;;;;;;13.27;10.80;;;13.40;82.80;;;;;;4902201;29;20442;-84
2023/02/14 15:03:52;;;;;;;14.00;9.40;;;13.50;83.20;;;;;;4900380;29;20971;-85
2023/02/14 15:07:24;;;;;;;13.30;10.67;;;13.50;83.50;;;;;;4806104;29;20466;-84
2023/02/14 15:42:42;;;;;;;;;;;;;;;;;;;;;
2023/02/14 15:46:27;;;;;;;11.07;9.50;;;13.50;84.90;;;;;;4792269;29;21185;-86
2023/02/14 16:00:17;;;;;;;11.67;9.63;;;13.20;85.40;;;;;;4081475;23;20476;-84
2023/02/14 16:06:33;;;;;;;;;;;;;;;;;;;;;
2023/02/14 16:10:11;;;;;;;9.80;8.80;;;12.90;85.90;;;;;;4936461;28;20955;-87
2023/02/14 16:29:59;;;;;;;11.20;9.57;;;12.60;88.10;;;;;;4148178;26;20491;-85
2023/02/14 16:32:51;;;;;;;13.80;10.50;;;12.50;88.00;;;;;;4867477;29;20555;-86
2023/02/14 16:36:04;;;;;;;12.23;9.67;;;12.50;87.80;;;;;;4874797;29;20479;-84
2023/02/14 16:39:09;;;;;;;14.40;9.40;;;12.50;88.20;;;;;;4879438;29;20459;-85
2023/02/14 16:42:40;;;;;;;12.30;10.17;;;12.30;88.60;;;;;;4865989;29;20579;-84
2023/02/14 16:45:51;;;;;;;14.27;10.20;;;12.00;89.60;;;;;;4932812;28;20467;-86
2023/02/14 16:48:56;;;;;;;;;;;;;;;;;;;;;
2023/02/14 16:52:09;;;;;;;12.83;9.67;;;11.60;90.50;;;;;;4867305;29;20473;-83
2023/02/14 16:55:07;;;;;;;13.83;10.40;;;11.50;91.00;;;;;;4862704;29;20445;-84
2023/02/14 17:00:58;;;;;;;12.47;9.57;;;11.60;91.10;;;;;;4964972;28;21290;-85
2023/02/14 17:03:38;;;;;;;13.87;9.77;;;11.80;90.90;;;;;;4915525;28;20465;-83
2023/02/14 17:06:49;;;;;;;15.40;10.80;;;11.50;90.70;;;;;;4936625;28;20453;-83
2023/02/14 17:16:31;;;;;;;13.63;9.43;;;11.40;91.10;;;;;;5449991;23;21702;-84
2023/02/14 17:19:24;;;;;;;14.63;10.23;;;11.40;91.20;;;;;;4963636;28;20535;-83
2023/02/14 17:22:15;;;;;;;12.53;10.27;;;11.30;91.40;;;;;;4967916;28;20486;-85
2023/02/14 17:24:57;;;;;;;16.07;10.43;;;11.20;91.60;;;;;;4964687;28;20947;-84
2023/02/14 17:27:34;;;;;;;12.53;10.13;;;11.10;91.60;;;;;;4946327;28;20574;-84
2023/02/14 17:30:19;;;;;;;16.67;11.77;;;11.00;91.90;;;;;;4945647;28;20462;-83
2023/02/14 17:33:06;;;;;;;13.93;10.30;;;10.80;92.20;;;;;;4947334;28;20507;-84
2023/02/14 17:35:38;;;;;;;15.97;11.43;;;10.80;92.60;;;;;;4944684;28;20452;-85
2023/02/14 17:38:52;;;;;;;12.87;9.43;;;11.00;92.40;;;;;;4945432;28;20523;-84
2023/02/14 17:41:33;;;;;;;17.53;11.43;;;10.70;92.60;;;;;;4945002;28;20492;-83
2023/02/14 17:44:11;;;;;;;13.40;11.17;;;10.70;92.60;;;;;;4934921;28;20460;-84
2023/02/14 17:47:12;;;;;;;15.90;11.67;;;10.60;92.90;;;;;;4945393;28;21168;-84
2023/02/14 17:49:47;;;;;;;13.00;10.90;;;10.60;93.00;;;;;;4920792;29;20460;-83
2023/02/14 17:52:29;;;;;;;13.37;10.60;;;10.70;92.80;;;;;;4955542;28;20490;-82
2023/02/14 17:55:19;;;;;;;18.23;12.37;;;10.50;92.80;;;;;;4967697;28;20457;-83
2023/02/14 17:58:01;;;;;;;15.87;12.23;;;10.40;93.00;;;;;;4949924;28;20460;-84
2023/02/14 18:01:11;;;;;;;17.37;12.03;;;10.20;93.30;;;;;;4965021;28;20585;-85
2023/02/14 18:03:54;;;;;;;16.53;11.60;;;10.30;93.30;;;;;;4951348;28;20451;-84
2023/02/14 18:06:35;;;;;;;16.60;12.47;;;10.10;93.40;;;;;;4951079;28;20475;-86
2023/02/14 18:09:05;;;;;;;17.07;13.23;;;10.00;93.60;;;;;;4956051;28;21108;-84
2023/02/14 18:11:49;;;;;;;17.10;12.10;;;9.90;94.40;;;;;;4971364;28;20628;-84
2023/02/14 18:14:42;;;;;;;17.80;12.03;;;9.90;94.50;;;;;;4941026;28;20474;-85
2023/02/14 18:17:30;;;;;;;16.80;11.87;;;10.00;93.70;;;;;;4954734;28;20633;-84
2023/02/14 18:20:08;;;;;;;16.47;12.73;;;9.90;94.40;;;;;;4958875;28;20475;-85
2023/02/14 18:22:46;;;;;;;16.23;12.00;;;9.80;94.50;;;;;;4976617;28;20559;-83
2023/02/14 18:25:24;;;;;;;14.43;11.07;;;9.70;94.70;;;;;;4962959;28;20528;-83
2023/02/14 18:28:00;;;;;;;18.27;13.93;;;9.60;94.90;;;;;;4962866;28;20540;-82
2023/02/14 18:30:39;;;;;;;15.87;11.90;;;9.50;94.90;;;;;;4964178;28;20531;-82
2023/02/14 18:33:30;;;;;;;16.03;12.37;;;9.60;95.10;;;;;;4974472;28;20454;-84
2023/02/14 18:36:31;;;;;;;20.13;12.73;;;9.60;95.00;;;;;;4972232;28;20457;-81
2023/02/14 18:39:14;;;;;;;17.37;12.70;;;9.60;95.00;;;;;;4973154;28;20514;-83
2023/02/14 18:42:04;;;;;;;18.87;13.30;;;9.50;94.80;;;;;;4987802;28;20498;-83
2023/02/14 18:44:36;;;;;;;19.50;12.33;;;9.40;95.20;;;;;;4968784;28;20459;-83
2023/02/14 18:47:20;;;;;;;14.23;10.10;;;9.30;95.50;;;;;;4975104;28;20831;-82
2023/02/14 18:50:12;;;;;;;14.73;12.40;;;9.30;95.50;;;;;;4977181;28;20487;-84
2023/02/14 18:55:44;;;;;;;19.70;13.40;;;9.00;96.00;;;;;;4972020;28;20471;-84
2023/02/14 18:58:28;;;;;;;18.37;13.77;;;8.80;96.20;;;;;;4954928;28;20468;-84
2023/02/14 19:01:10;;;;;;;18.40;12.60;;;8.80;96.50;;;;;;4954954;28;20577;-84
2023/02/14 19:03:53;;;;;;;16.80;12.70;;;8.80;96.60;;;;;;4956574;28;20515;-85
2023/02/14 19:06:33;;;;;;;17.87;12.50;;;8.80;96.60;;;;;;4957265;28;20463;-84
2023/02/14 19:09:13;;;;;;;17.90;12.90;;;8.80;96.80;;;;;;4965164;28;22088;-81
2023/02/14 19:11:58;;;;;;;17.20;12.53;;;8.60;96.80;;;;;;4969143;28;20483;-84
2023/02/14 19:14:29;;;;;;;22.57;14.10;;;8.50;97.30;;;;;;4970120;28;20458;-81
2023/02/14 19:17:16;;;;;;;22.53;15.23;;;8.50;97.10;;;;;;4970504;28;20472;-83
2023/02/14 19:19:50;;;;;;;22.83;14.70;;;8.50;97.20;;;;;;4970284;28;20476;-83
2023/02/14 19:22:40;;;;;;;22.23;13.97;;;8.50;97.30;;;;;;4976925;28;20536;-83
2023/02/14 19:25:36;;;;;;;20.30;14.97;;;8.60;97.40;;;;;;4976226;28;20427;-82
2023/02/14 19:28:26;;;;;;;20.63;13.87;;;8.60;97.20;;;;;;4975097;28;20463;-82
2023/02/14 19:33:44;;;;;;;19.03;12.60;;;8.50;97.30;;;;;;4979563;28;20474;-81
2023/02/14 19:36:48;;;;;;;20.67;13.03;;;8.40;97.40;;;;;;4949418;28;20547;-82
2023/02/14 19:39:42;;;;;;;22.53;13.60;;;8.30;97.50;;;;;;5319940;23;20484;-85
2023/02/14 19:42:35;;;;;;;21.77;14.27;;;8.30;97.70;;;;;;4941111;29;20508;-83
2023/02/14 19:45:11;;;;;;;19.40;14.00;;;8.20;97.60;;;;;;4938074;29;20465;-85
2023/02/14 19:48:02;;;;;;;20.60;13.90;;;8.20;97.80;;;;;;4937267;29;20453;-84
2023/02/14 19:50:57;;;;;;;19.77;14.90;;;8.20;98.00;;;;;;4935094;29;20453;-84
2023/02/14 19:54:11;;;;;;;23.37;15.23;;;8.10;98.10;;;;;;4932518;29;20466;-85
2023/02/14 19:56:57;;;;;;;19.60;13.47;;;7.90;98.50;;;;;;4915801;29;20462;-84
2023/02/14 19:59:40;;;;;;;22.17;13.43;;;8.00;98.50;;;;;;4900220;29;20547;-84
2023/02/14 20:02:23;;;;;;;19.53;14.03;;;8.10;98.40;;;;;;4930658;29;20581;-85
2023/02/14 20:05:07;;;;;;;26.53;14.50;;;7.90;98.30;;;;;;4919540;29;20458;-84
2023/02/14 20:07:43;;;;;;;22.23;14.93;;;7.90;98.50;;;;;;4917838;29;20469;-85
2023/02/14 20:10:38;;;;;;;28.00;15.20;;;7.80;98.60;;;;;;4875904;29;20972;-85
2023/02/14 20:13:30;;;;;;;22.30;15.80;;;7.80;98.60;;;;;;4860932;29;22337;-85
2023/02/14 20:16:17;;;;;;;21.10;13.50;;;7.60;98.70;;;;;;4871915;29;20504;-83
2023/02/14 20:19:00;;;;;;;21.83;14.23;;;7.60;99.10;;;;;;4876415;29;20464;-84
2023/02/14 20:25:05;;;;;;;23.73;15.10;;;7.40;99.20;;;;;;4866625;29;20464;-83
2023/02/14 20:27:53;;;;;;;20.70;14.70;;;7.40;99.60;;;;;;4868796;29;20497;-85
2023/02/14 20:31:09;;;;;;;20.70;14.60;;;7.20;99.80;;;;;;4865313;29;20460;-85
2023/02/14 20:33:54;;;;;;;24.03;16.17;;;7.20;99.90;;;;;;4856867;29;20451;-84
2023/02/14 20:36:57;;;;;;;21.43;15.07;;;7.10;99.90;;;;;;4858899;29;20471;-85
2023/02/14 20:39:54;;;;;;;21.97;14.73;;;7.30;99.90;;;;;;4875087;29;20473;-84
2023/02/14 20:42:39;;;;;;;19.10;14.07;;;7.30;99.90;;;;;;4861809;29;20495;-84
2023/02/14 20:45:16;;;;;;;24.23;16.00;;;7.30;99.90;;;;;;4866127;29;20564;-85
2023/02/14 20:47:54;;;;;;;23.77;14.90;;;7.20;99.90;;;;;;4921862;29;20452;-84
2023/02/14 20:50:45;;;;;;;22.80;14.23;;;7.30;99.90;;;;;;4920986;29;20533;-86
2023/02/14 20:54:18;;;;;;;22.70;14.70;;;7.40;99.90;;;;;;4932181;29;20454;-84
2023/02/14 20:56:57;;;;;;;22.90;14.30;;;7.20;99.90;;;;;;4934117;29;20469;-84
2023/02/14 20:59:31;;;;;;;22.67;15.40;;;7.20;99.90;;;;;;4919840;29;20537;-85
2023/02/14 21:02:19;;;;;;;21.97;13.90;;;7.20;99.90;;;;;;4933564;29;20485;-84
2023/02/14 21:05:05;;;;;;;22.33;15.60;;;7.30;99.90;;;;;;4918101;29;20525;-85
2023/02/14 21:07:55;;;;;;;22.27;13.37;;;7.00;99.90;;;;;;4933133;29;20496;-84
2023/02/14 21:11:12;;;;;;;20.37;14.20;;;7.00;99.90;;;;;;4909896;29;20554;-84
2023/02/14 21:14:20;;;;;;;19.30;14.40;;;7.10;99.90;;;;;;4939633;28;20469;-85
2023/02/14 21:17:48;;;;;;;21.90;15.53;;;7.00;99.90;;;;;;4923706;29;20444;-82
2023/02/14 21:20:56;;;;;;;23.07;16.27;;;7.00;99.90;;;;;;4889147;29;20450;-84
2023/02/14 21:23:37;;;;;;;24.70;15.27;;;7.00;99.90;;;;;;4936282;29;20454;-84
2023/02/14 21:26:32;;;;;;;22.40;15.40;;;6.90;99.90;;;;;;4933179;29;20526;-83
2023/02/14 21:29:16;;;;;;;23.10;15.50;;;6.80;99.90;;;;;;4935455;29;20493;-81
2023/02/14 21:32:18;;;;;;;20.17;15.03;;;6.80;99.90;;;;;;4926410;29;20497;-84
2023/02/14 21:35:27;;;;;;;21.50;14.40;;;6.80;99.90;;;;;;4935313;29;20544;-85
2023/02/14 21:38:45;;;;;;;20.93;15.40;;;6.90;99.90;;;;;;4927678;29;20454;-86
2023/02/14 21:41:34;;;;;;;21.77;14.83;;;6.70;99.90;;;;;;4932304;29;20550;-83
2023/02/14 21:50:42;;;;;;;22.80;14.87;;;6.90;99.90;;;;;;4960086;28;20471;-86
2023/02/14 21:53:23;;;;;;;22.67;15.50;;;7.00;99.90;;;;;;4953063;28;20463;-84
2023/02/14 21:56:26;;;;;;;24.23;17.07;;;6.90;99.90;;;;;;4930412;29;20504;-83
2023/02/14 21:59:20;;;;;;;21.90;15.30;;;6.90;99.90;;;;;;4914461;28;20572;-85
2023/02/14 22:02:04;;;;;;;;;;;;;;;;;;;;;
2023/02/14 22:05:01;;;;;;;22.73;13.67;;;7.00;99.90;;;;;;4940814;29;20572;-83
2023/02/14 22:07:49;;;;;;;24.33;15.63;;;6.90;99.90;;;;;;4940065;29;20560;-83
2023/02/14 22:10:40;;;;;;;23.90;15.67;;;6.80;99.90;;;;;;4938260;29;20456;-85
2023/02/14 22:13:49;;;;;;;28.50;17.47;;;6.70;99.90;;;;;;4937537;29;20460;-85
2023/02/14 22:16:38;;;;;;;26.23;15.80;;;6.60;99.90;;;;;;4944420;29;20457;-83
2023/02/14 22:19:34;;;;;;;27.50;17.27;;;6.60;99.90;;;;;;4923572;29;21138;-85
2023/02/14 22:25:42;;;;;;;29.10;19.10;;;6.60;99.90;;;;;;4936516;29;20552;-83
2023/02/14 22:28:25;;;;;;;26.27;16.60;;;6.50;99.90;;;;;;4914911;29;20457;-86
2023/02/14 22:31:10;;;;;;;26.20;17.23;;;6.40;99.90;;;;;;4924548;29;20492;-85
2023/02/14 22:37:54;;;;;;;24.50;15.70;;;6.30;99.90;;;;;;4937665;29;20433;-83
2023/02/14 22:40:32;;;;;;;26.27;16.70;;;6.30;99.90;;;;;;4926124;29;20453;-84
2023/02/14 22:43:14;;;;;;;28.70;17.80;;;6.20;99.90;;;;;;4927862;29;20508;-83
2023/02/14 22:45:54;;;;;;;22.10;14.83;;;6.30;99.90;;;;;;4933741;28;20822;-85